KGRK/GRK METAR and TAF weather

Enter ICAO airport designator
Station Type Date Time Source
KGRK METAR 2020/07/08 20:58 UTC NOAA

KGRK 082058Z AUTO 17009KT 10SM CLR 35/21 A2986 RMK AO2 SLP099 T03520214


Station Type Date Time Source
KGRK Decoded METAR 2020/07/08 20:58 UTC NOAA

Fort Hood, Robert Gray AAF Ft Hood, TX, United States (KGRK) 31-04N 097-49W
Jul 08, 2020 - 04:58 PM EDT / 2020.07.08 2058 UTC
Wind: from the S (170 degrees) at 10 MPH (9 KT):0
Visibility: 10 mile(s):0
Sky conditions: clear
Temperature: 95.4 F (35.2 C)
Heat index: 102.0 F (38.9 C):1
Dew Point: 70.5 F (21.4 C)
Relative Humidity: 44%
Pressure (altimeter): 29.86 in. Hg (1011 hPa)
ob: KGRK 082058Z AUTO 17009KT 10SM CLR 35/21 A2986 RMK AO2 SLP099 T03520214
cycle: 21

Station Type Date Time Source
KGRK TAF 2020/07/08 16:12 UTC NOAA

TAF KGRK 081600Z 0816/0922 18010G15KT 9999 SCT030 QNH2983INS
BECMG 0902/0903 16009KT 9999 FEW050 QNH2980INS
BECMG 0914/0915 19012G18KT 9999 SKC QNH2982INS TX37/0821Z TN24/0912Z

Example: see airport list